Time;durP1;ratioP1;P1;durP2;ratioP2;P2;SDS_P1;SDS_P2;PMS_P1;PMS_P2;Temp;Humidity;BMP_temperature;BMP_pressure;BME280_temperature;BME280_humidity;BME280_pressure;Samples;Min_cycle;Max_cycle;Signal;HPM_P1;HPM_P2
2022/09/18 00:01:00;;;;;;;0.30;0.30;;;9.20;99.90;;;;;;5125596;27;20197;-75
2022/09/18 00:03:28;;;;;;;0.40;0.30;;;9.30;99.90;;;;;;5113853;28;20473;-75
2022/09/18 00:05:54;;;;;;;0.40;0.40;;;9.30;99.90;;;;;;5121399;27;20445;-75
2022/09/18 00:08:21;;;;;;;0.30;0.30;;;9.20;99.90;;;;;;5134596;27;20446;-75
2022/09/18 00:10:49;;;;;;;1.47;0.30;;;9.20;99.90;;;;;;5127901;27;20506;-80
2022/09/18 00:13:16;;;;;;;0.50;0.30;;;9.20;99.90;;;;;;5113884;28;20474;-80
2022/09/18 00:15:43;;;;;;;0.40;0.37;;;9.30;99.90;;;;;;5118124;27;20449;-75
2022/09/18 00:18:09;;;;;;;0.60;0.30;;;9.30;99.90;;;;;;5134031;27;20477;-75
2022/09/18 00:20:37;;;;;;;0.30;0.30;;;9.20;99.90;;;;;;5133831;27;20442;-75
2022/09/18 00:23:04;;;;;;;0.50;0.40;;;9.30;99.90;;;;;;5134294;27;20473;-74
2022/09/18 00:25:31;;;;;;;2.10;0.40;;;9.30;99.90;;;;;;5133560;27;20446;-74
2022/09/18 00:27:59;;;;;;;0.40;0.40;;;9.20;99.90;;;;;;5133987;27;20518;-85
2022/09/18 00:30:26;;;;;;;0.30;0.30;;;9.20;99.90;;;;;;5133343;28;20842;-80
2022/09/18 00:32:53;;;;;;;0.50;0.30;;;9.20;99.90;;;;;;5113662;28;20467;-80
2022/09/18 00:35:19;;;;;;;0.40;0.30;;;9.30;99.90;;;;;;5113732;28;20466;-80
2022/09/18 00:37:46;;;;;;;0.40;0.30;;;9.20;99.90;;;;;;5133528;28;20809;-78
2022/09/18 00:40:14;;;;;;;0.30;0.30;;;9.20;99.90;;;;;;5133975;28;20438;-80
2022/09/18 00:42:41;;;;;;;0.45;0.43;;;9.20;99.90;;;;;;5114881;28;20889;-80
2022/09/18 00:45:10;;;;;;;0.50;0.30;;;9.10;99.90;;;;;;5113650;28;20197;-80
2022/09/18 00:47:41;;;;;;;0.40;0.30;;;9.20;99.90;;;;;;5130631;28;20859;-77
2022/09/18 00:50:12;;;;;;;0.80;0.30;;;9.30;99.90;;;;;;5133882;28;20430;-85
2022/09/18 00:52:49;;;;;;;0.40;0.30;;;9.40;99.90;;;;;;5116562;28;20470;-75
2022/09/18 00:55:21;;;;;;;0.50;0.40;;;9.40;99.90;;;;;;5113487;28;20188;-74
2022/09/18 00:57:51;;;;;;;0.40;0.30;;;9.40;99.90;;;;;;5113487;28;20445;-85
2022/09/18 01:00:19;;;;;;;0.30;0.27;;;9.40;99.90;;;;;;5113572;28;20431;-77
2022/09/18 01:02:48;;;;;;;0.30;0.30;;;9.40;99.90;;;;;;5130315;28;20820;-77
2022/09/18 01:05:17;;;;;;;0.30;0.30;;;9.40;99.90;;;;;;5134021;28;20473;-77
2022/09/18 01:07:55;;;;;;;0.30;0.30;;;9.50;99.90;;;;;;5117270;28;20961;-85
2022/09/18 01:10:36;;;;;;;0.97;0.37;;;9.40;99.90;;;;;;5113416;28;20443;-77
2022/09/18 01:13:13;;;;;;;0.30;0.30;;;9.40;99.90;;;;;;5131602;27;20470;-80
2022/09/18 01:15:51;;;;;;;0.30;0.30;;;9.40;99.90;;;;;;5137901;27;20187;-80
2022/09/18 01:18:25;;;;;;;0.33;0.30;;;9.40;99.90;;;;;;5117517;28;20473;-74
2022/09/18 01:21:07;;;;;;;0.80;0.43;;;9.40;99.90;;;;;;5117305;28;20781;-85
2022/09/18 01:23:59;;;;;;;0.30;0.30;;;9.40;99.90;;;;;;5097138;28;20464;-86
2022/09/18 01:26:45;;;;;;;0.53;0.30;;;9.40;99.90;;;;;;5102340;27;20446;-80
2022/09/18 01:29:21;;;;;;;0.90;0.63;;;9.40;99.90;;;;;;5135548;27;20438;-84
2022/09/18 01:31:53;;;;;;;0.30;0.30;;;9.40;99.90;;;;;;5131772;27;20189;-75
2022/09/18 01:34:25;;;;;;;0.30;0.20;;;9.40;99.90;;;;;;5117414;28;20458;-74
2022/09/18 01:36:56;;;;;;;0.90;0.50;;;9.40;99.90;;;;;;5122150;27;20189;-75
2022/09/18 01:39:29;;;;;;;0.30;0.30;;;9.40;99.90;;;;;;5137382;27;20466;-85
2022/09/18 01:41:57;;;;;;;0.30;0.30;;;9.50;99.90;;;;;;5136831;27;20430;-85
2022/09/18 01:44:29;;;;;;;0.40;0.30;;;9.50;99.90;;;;;;5137270;27;20536;-85
2022/09/18 01:46:58;;;;;;;0.40;0.30;;;9.40;99.90;;;;;;5132008;27;20510;-77
2022/09/18 01:49:29;;;;;;;0.30;0.30;;;9.40;99.90;;;;;;5116569;28;20443;-78
2022/09/18 01:52:03;;;;;;;0.30;0.30;;;9.40;99.90;;;;;;5120840;27;20454;-78
2022/09/18 01:54:34;;;;;;;0.30;0.20;;;9.50;99.90;;;;;;5137078;27;20489;-77
2022/09/18 01:57:07;;;;;;;0.40;0.30;;;9.50;99.90;;;;;;5132241;27;20447;-78
2022/09/18 01:59:39;;;;;;;0.37;0.33;;;9.50;99.90;;;;;;5116090;28;20463;-78
2022/09/18 02:02:11;;;;;;;0.30;0.20;;;9.40;99.90;;;;;;5120941;27;20434;-79
2022/09/18 02:04:40;;;;;;;0.30;0.30;;;9.40;99.90;;;;;;5136896;27;20470;-76
2022/09/18 02:07:13;;;;;;;0.40;0.30;;;9.40;99.90;;;;;;5132423;27;20818;-79
2022/09/18 02:09:39;;;;;;;0.67;0.50;;;9.30;99.90;;;;;;5116313;28;20427;-78
2022/09/18 02:12:10;;;;;;;0.50;0.50;;;9.30;99.90;;;;;;5119614;27;20449;-79
2022/09/18 02:14:40;;;;;;;0.40;0.30;;;9.30;99.90;;;;;;5136898;27;20482;-86
2022/09/18 02:17:13;;;;;;;0.60;0.30;;;9.30;99.90;;;;;;5133315;27;20193;-82
2022/09/18 02:19:42;;;;;;;0.50;0.30;;;9.30;99.90;;;;;;5115718;28;20466;-81
2022/09/18 02:22:13;;;;;;;0.67;0.37;;;9.30;99.90;;;;;;5118689;27;20462;-80
2022/09/18 02:24:43;;;;;;;0.40;0.30;;;9.20;99.90;;;;;;5136050;27;20462;-78
2022/09/18 02:27:12;;;;;;;0.60;0.60;;;9.20;99.90;;;;;;5133393;27;20479;-79
2022/09/18 02:29:42;;;;;;;0.30;0.30;;;9.20;99.90;;;;;;5115887;28;20447;-76
2022/09/18 02:32:09;;;;;;;0.33;0.30;;;9.20;99.90;;;;;;5117323;27;20443;-79
2022/09/18 02:34:36;;;;;;;0.30;0.25;;;9.20;99.90;;;;;;5136232;27;20469;-79
2022/09/18 02:37:14;;;;;;;0.30;0.30;;;9.20;99.90;;;;;;5135799;27;20204;-76
2022/09/18 02:39:53;;;;;;;0.40;0.30;;;9.20;99.90;;;;;;5115645;28;20470;-84
2022/09/18 02:42:31;;;;;;;0.30;0.30;;;9.10;99.90;;;;;;5117257;27;20910;-78
2022/09/18 02:45:06;;;;;;;0.30;0.30;;;9.10;99.90;;;;;;5136218;27;20469;-79
2022/09/18 02:47:48;;;;;;;0.50;0.30;;;9.00;99.90;;;;;;5132432;27;20442;-81
2022/09/18 02:50:19;;;;;;;0.40;0.30;;;9.10;99.90;;;;;;5115545;28;20489;-78
2022/09/18 02:52:52;;;;;;;0.70;0.40;;;9.10;99.90;;;;;;5119896;27;20484;-78
2022/09/18 02:55:24;;;;;;;0.40;0.30;;;9.00;99.90;;;;;;5135976;27;20437;-81
2022/09/18 02:57:56;;;;;;;0.30;0.30;;;9.00;99.90;;;;;;5130393;27;20840;-81
2022/09/18 03:00:25;;;;;;;0.40;0.30;;;9.00;99.90;;;;;;5115196;28;20474;-81
2022/09/18 03:02:52;;;;;;;0.40;0.37;;;9.00;99.90;;;;;;5119281;27;20824;-76
2022/09/18 03:05:19;;;;;;;0.30;0.30;;;9.00;99.90;;;;;;5135706;27;20475;-81
2022/09/18 03:07:45;;;;;;;0.30;0.20;;;9.10;99.90;;;;;;5132125;27;21246;-76
2022/09/18 03:10:12;;;;;;;0.40;0.30;;;9.00;99.90;;;;;;5115027;28;20450;-76
2022/09/18 03:12:39;;;;;;;0.30;0.30;;;9.00;99.90;;;;;;5115880;27;20225;-76
2022/09/18 03:15:07;;;;;;;0.30;0.20;;;9.00;99.90;;;;;;5135479;27;20446;-76
2022/09/18 03:17:35;;;;;;;0.30;0.30;;;9.00;99.90;;;;;;5135092;27;20446;-76
2022/09/18 03:20:02;;;;;;;0.30;0.30;;;9.00;99.90;;;;;;5117241;27;20969;-81
2022/09/18 03:22:29;;;;;;;0.30;0.20;;;9.00;99.90;;;;;;5114781;28;20493;-78
2022/09/18 03:24:55;;;;;;;0.30;0.30;;;9.00;99.90;;;;;;5114513;28;20446;-81
2022/09/18 03:27:22;;;;;;;0.30;0.30;;;9.00;99.90;;;;;;5114620;28;20478;-76
2022/09/18 03:29:49;;;;;;;0.30;0.30;;;9.00;99.90;;;;;;5114632;28;20443;-75
2022/09/18 03:32:15;;;;;;;0.40;0.30;;;9.00;99.90;;;;;;5131365;27;20964;-86
2022/09/18 03:34:43;;;;;;;0.60;0.40;;;8.90;99.90;;;;;;5135154;27;20450;-75
2022/09/18 03:37:10;;;;;;;0.30;0.20;;;8.90;99.90;;;;;;5118237;27;20446;-78
2022/09/18 03:39:37;;;;;;;0.67;0.40;;;9.00;99.90;;;;;;5114446;28;20221;-79
2022/09/18 03:42:04;;;;;;;0.30;0.30;;;8.90;99.90;;;;;;5128512;27;20442;-81
2022/09/18 03:44:30;;;;;;;0.40;0.30;;;9.00;99.90;;;;;;5134911;27;20466;-79
2022/09/18 03:46:57;;;;;;;0.30;0.30;;;9.00;99.90;;;;;;5133886;27;20200;-81
2022/09/18 03:49:25;;;;;;;0.30;0.30;;;9.00;99.90;;;;;;5134930;27;20562;-76
2022/09/18 03:51:53;;;;;;;0.40;0.30;;;9.00;99.90;;;;;;5123073;27;20451;-76
2022/09/18 03:54:20;;;;;;;0.30;0.30;;;9.10;99.90;;;;;;5114265;28;20466;-86
2022/09/18 03:56:47;;;;;;;0.40;0.40;;;9.00;99.90;;;;;;5123951;27;20449;-76
2022/09/18 03:59:14;;;;;;;0.30;0.30;;;9.10;99.90;;;;;;5134385;27;20531;-81
2022/09/18 04:01:41;;;;;;;0.40;0.33;;;9.00;99.90;;;;;;5125660;27;20447;-79
2022/09/18 04:04:08;;;;;;;0.30;0.30;;;9.00;99.90;;;;;;5114063;28;20558;-75
2022/09/18 04:06:35;;;;;;;0.30;0.30;;;9.00;99.90;;;;;;5121220;27;20196;-78
2022/09/18 04:09:03;;;;;;;0.40;0.30;;;9.00;99.90;;;;;;5134527;27;20449;-79
2022/09/18 04:11:30;;;;;;;0.70;0.30;;;9.00;99.90;;;;;;5134005;27;20438;-86
2022/09/18 04:13:56;;;;;;;0.30;0.30;;;9.00;99.90;;;;;;5134607;27;20839;-82
2022/09/18 04:16:23;;;;;;;0.30;0.20;;;9.10;99.90;;;;;;5134249;27;20457;-86
2022/09/18 04:18:50;;;;;;;0.40;0.30;;;9.10;99.90;;;;;;5134575;27;20450;-76
2022/09/18 04:21:17;;;;;;;0.30;0.20;;;9.20;99.90;;;;;;5131045;27;20435;-76
2022/09/18 04:23:43;;;;;;;0.40;0.40;;;9.20;99.90;;;;;;5113762;28;20459;-76
2022/09/18 04:26:11;;;;;;;0.30;0.30;;;9.20;99.90;;;;;;5115190;28;20216;-76
2022/09/18 04:28:38;;;;;;;0.50;0.40;;;9.30;99.90;;;;;;5134022;27;20485;-76
2022/09/18 04:31:05;;;;;;;0.50;0.30;;;9.30;99.90;;;;;;5133541;28;20453;-79
2022/09/18 04:33:32;;;;;;;0.30;0.30;;;9.40;99.90;;;;;;5134209;28;20461;-81
2022/09/18 04:35:59;;;;;;;0.30;0.20;;;9.40;99.90;;;;;;5134284;28;20471;-81
2022/09/18 04:38:27;;;;;;;0.40;0.30;;;9.40;99.90;;;;;;5114303;28;20446;-81
2022/09/18 04:40:55;;;;;;;0.40;0.30;;;9.50;99.90;;;;;;5113612;28;20278;-81
2022/09/18 04:43:24;;;;;;;0.40;0.30;;;9.50;99.90;;;;;;5131938;28;20497;-79
2022/09/18 04:45:50;;;;;;;0.60;0.30;;;9.50;99.90;;;;;;5133892;28;20446;-78
2022/09/18 04:48:18;;;;;;;0.30;0.30;;;9.40;99.90;;;;;;5116694;28;20439;-75
2022/09/18 04:50:45;;;;;;;0.37;0.37;;;9.40;99.90;;;;;;5117780;28;20454;-75
2022/09/18 04:53:12;;;;;;;0.40;0.30;;;9.40;99.90;;;;;;5133289;27;20976;-86
2022/09/18 04:55:41;;;;;;;0.47;0.40;;;9.40;99.90;;;;;;5138396;27;20442;-81
2022/09/18 04:58:08;;;;;;;0.50;0.30;;;9.40;99.90;;;;;;5122934;27;20442;-81
2022/09/18 05:00:37;;;;;;;1.13;0.50;;;9.30;99.90;;;;;;5117541;27;20471;-86
2022/09/18 05:03:04;;;;;;;0.50;0.33;;;9.30;99.90;;;;;;5129687;27;20981;-78
2022/09/18 05:05:31;;;;;;;0.30;0.30;;;9.30;99.90;;;;;;5138035;27;20438;-75
2022/09/18 05:07:59;;;;;;;0.30;0.30;;;9.20;99.90;;;;;;5126932;27;20193;-75
2022/09/18 05:10:26;;;;;;;0.33;0.30;;;9.20;99.90;;;;;;5117433;28;20439;-79
2022/09/18 05:12:52;;;;;;;0.30;0.30;;;9.20;99.90;;;;;;5117495;27;20474;-78
2022/09/18 05:15:19;;;;;;;0.40;0.30;;;9.30;99.90;;;;;;5117377;28;20495;-81
2022/09/18 05:17:48;;;;;;;0.53;0.40;;;9.20;99.90;;;;;;5125014;27;20200;-81
2022/09/18 05:20:15;;;;;;;0.40;0.30;;;9.20;99.90;;;;;;5137418;27;21001;-79
2022/09/18 05:22:45;;;;;;;0.30;0.30;;;9.20;99.90;;;;;;5124164;27;20509;-76
2022/09/18 05:25:12;;;;;;;0.40;0.40;;;9.30;99.90;;;;;;5117170;28;20187;-76
2022/09/18 05:27:39;;;;;;;0.30;0.30;;;9.20;99.90;;;;;;5128565;27;21001;-75
2022/09/18 05:30:07;;;;;;;0.30;0.30;;;9.30;99.90;;;;;;5137390;27;20441;-79
2022/09/18 05:32:34;;;;;;;1.73;0.40;;;9.30;99.90;;;;;;5126230;27;20446;-80
2022/09/18 05:35:02;;;;;;;0.33;0.33;;;9.30;99.90;;;;;;5116907;28;20446;-79
2022/09/18 05:37:29;;;;;;;0.30;0.30;;;9.30;99.90;;;;;;5126298;27;20442;-78
2022/09/18 05:39:56;;;;;;;0.30;0.30;;;9.30;99.90;;;;;;5137386;27;20488;-78
2022/09/18 05:42:23;;;;;;;1.17;1.17;;;9.30;99.90;;;;;;5128891;27;20470;-81
2022/09/18 05:44:49;;;;;;;0.40;0.30;;;9.20;99.90;;;;;;5120093;27;20442;-76
2022/09/18 05:47:16;;;;;;;0.40;0.40;;;9.20;99.90;;;;;;5117173;27;20544;-81
2022/09/18 05:49:43;;;;;;;0.30;0.23;;;9.20;99.90;;;;;;5127839;27;20448;-86
2022/09/18 05:52:11;;;;;;;0.30;0.30;;;9.20;99.90;;;;;;5137250;27;20828;-80
2022/09/18 05:54:37;;;;;;;0.30;0.30;;;9.20;99.90;;;;;;5126748;27;20470;-81
2022/09/18 05:57:04;;;;;;;0.60;0.30;;;9.30;99.90;;;;;;5116545;28;20217;-75
2022/09/18 05:59:31;;;;;;;0.30;0.30;;;9.30;99.90;;;;;;5124098;27;20447;-75
2022/09/18 06:01:57;;;;;;;0.30;0.28;;;9.30;99.90;;;;;;5136620;27;20937;-75
2022/09/18 06:04:24;;;;;;;0.30;0.30;;;9.30;99.90;;;;;;5129581;27;20221;-75
2022/09/18 06:06:51;;;;;;;0.30;0.30;;;9.30;99.90;;;;;;5115995;28;20442;-75
2022/09/18 06:09:19;;;;;;;1.02;0.40;;;9.30;99.90;;;;;;5121621;27;20450;-81
2022/09/18 06:11:45;;;;;;;0.80;0.80;;;9.30;99.90;;;;;;5136784;27;20207;-81
2022/09/18 06:14:12;;;;;;;0.40;0.30;;;9.30;99.90;;;;;;5132269;27;20572;-81
2022/09/18 06:16:39;;;;;;;0.30;0.20;;;9.30;99.90;;;;;;5116141;28;20447;-81
2022/09/18 06:19:06;;;;;;;0.30;0.30;;;9.30;99.90;;;;;;5118491;27;20443;-81
2022/09/18 06:21:32;;;;;;;0.30;0.30;;;9.30;99.90;;;;;;5136642;27;20568;-86
2022/09/18 06:23:59;;;;;;;0.40;0.30;;;9.20;99.90;;;;;;5123115;27;20467;-80
2022/09/18 06:26:27;;;;;;;0.40;0.40;;;9.30;99.90;;;;;;5115442;28;20447;-80
2022/09/18 06:28:54;;;;;;;2.97;0.50;;;9.30;99.90;;;;;;5131295;27;20453;-81
2022/09/18 06:31:20;;;;;;;0.30;0.30;;;9.30;99.90;;;;;;5136375;27;20445;-75
2022/09/18 06:33:48;;;;;;;0.40;0.40;;;9.30;99.90;;;;;;5134521;27;20465;-78
2022/09/18 06:36:15;;;;;;;0.40;0.40;;;9.30;99.90;;;;;;5136050;27;20458;-79
2022/09/18 06:38:42;;;;;;;0.73;0.40;;;9.40;99.90;;;;;;5123273;27;20450;-75
2022/09/18 06:41:09;;;;;;;0.30;0.30;;;9.40;99.90;;;;;;5115581;28;20493;-76
2022/09/18 06:43:37;;;;;;;0.30;0.30;;;9.40;99.90;;;;;;5116598;27;20465;-81
2022/09/18 06:46:04;;;;;;;1.13;0.63;;;9.40;99.90;;;;;;5115627;28;20443;-75
2022/09/18 06:48:31;;;;;;;0.40;0.40;;;9.50;99.90;;;;;;5129516;27;20450;-78
2022/09/18 06:50:58;;;;;;;2.10;0.67;;;9.60;99.90;;;;;;5136046;27;20442;-78
2022/09/18 06:53:26;;;;;;;0.57;0.57;;;9.60;99.90;;;;;;5133826;27;20997;-78
2022/09/18 06:55:53;;;;;;;0.30;0.30;;;9.70;99.90;;;;;;5135592;27;20442;-78
2022/09/18 06:58:20;;;;;;;0.40;0.40;;;9.70;99.90;;;;;;5123859;27;20443;-81
2022/09/18 07:00:48;;;;;;;0.30;0.30;;;9.70;99.90;;;;;;5115212;28;20617;-81
2022/09/18 07:03:15;;;;;;;0.47;0.33;;;9.70;99.90;;;;;;5115841;27;20827;-81
2022/09/18 07:05:44;;;;;;;0.40;0.40;;;9.60;99.90;;;;;;5114880;28;20823;-81
2022/09/18 07:08:11;;;;;;;0.40;0.30;;;9.60;99.90;;;;;;5123935;27;20972;-81
2022/09/18 07:10:40;;;;;;;0.53;0.50;;;9.70;99.90;;;;;;5135106;27;20909;-81
2022/09/18 07:13:07;;;;;;;0.40;0.30;;;9.80;99.90;;;;;;5134136;27;20477;-81
2022/09/18 07:15:34;;;;;;;0.50;0.40;;;9.80;99.90;;;;;;5134907;27;20856;-81
2022/09/18 07:18:04;;;;;;;0.40;0.40;;;9.70;99.90;;;;;;5131344;27;20910;-81
2022/09/18 07:20:31;;;;;;;0.40;0.30;;;9.70;99.90;;;;;;5115178;28;20549;-81
2022/09/18 07:22:59;;;;;;;0.40;0.30;;;9.70;99.90;;;;;;5114791;28;20572;-81
2022/09/18 07:25:28;;;;;;;0.40;0.30;;;9.70;99.90;;;;;;5115151;28;20450;-87
2022/09/18 07:27:55;;;;;;;0.50;0.50;;;9.60;99.90;;;;;;5133081;27;21018;-88
2022/09/18 07:30:22;;;;;;;0.70;0.70;;;9.60;99.90;;;;;;5135646;27;20443;-87
2022/09/18 07:32:48;;;;;;;0.40;0.40;;;9.70;99.90;;;;;;5117886;27;20477;-86
2022/09/18 07:35:17;;;;;;;0.40;0.30;;;9.70;99.90;;;;;;5114980;28;20447;-87
2022/09/18 07:37:43;;;;;;;0.30;0.20;;;9.70;99.90;;;;;;5130746;27;20802;-88
2022/09/18 07:40:11;;;;;;;0.40;0.40;;;9.70;99.90;;;;;;5135140;27;21012;-82
2022/09/18 07:42:38;;;;;;;0.32;0.32;;;9.70;99.90;;;;;;5120121;27;20217;-82
2022/09/18 07:45:05;;;;;;;0.40;0.40;;;9.70;99.90;;;;;;5114486;28;20212;-79
2022/09/18 07:47:32;;;;;;;6.70;0.50;;;9.70;99.90;;;;;;5127378;27;20453;-79
2022/09/18 07:49:59;;;;;;;0.40;0.40;;;9.70;99.90;;;;;;5134899;27;20446;-79
2022/09/18 07:52:27;;;;;;;0.40;0.30;;;9.80;99.90;;;;;;5122773;27;20451;-76
2022/09/18 07:54:54;;;;;;;0.40;0.40;;;9.80;99.90;;;;;;5114479;28;20454;-76
2022/09/18 07:57:21;;;;;;;0.30;0.30;;;9.80;99.90;;;;;;5124812;27;20446;-88
2022/09/18 07:59:47;;;;;;;0.40;0.30;;;9.90;99.90;;;;;;5135375;27;20882;-88
2022/09/18 08:02:14;;;;;;;0.37;0.30;;;9.90;99.90;;;;;;5125866;27;20485;-76
2022/09/18 08:04:41;;;;;;;0.60;0.60;;;10.00;99.90;;;;;;5113752;28;21009;-76
2022/09/18 08:07:07;;;;;;;0.50;0.50;;;10.00;99.90;;;;;;5121611;27;20446;-88
2022/09/18 08:09:35;;;;;;;0.30;0.20;;;10.00;99.90;;;;;;5135261;27;20450;-82
2022/09/18 08:12:02;;;;;;;0.40;0.30;;;10.10;99.90;;;;;;5127836;27;20448;-83
2022/09/18 08:14:29;;;;;;;0.70;0.50;;;10.10;99.90;;;;;;5113913;28;20881;-83
2022/09/18 08:16:56;;;;;;;0.30;0.30;;;10.20;99.90;;;;;;5118427;27;20439;-82
2022/09/18 08:19:23;;;;;;;0.40;0.40;;;10.20;99.90;;;;;;5134143;27;20456;-76
2022/09/18 08:21:50;;;;;;;0.30;0.30;;;10.20;99.90;;;;;;5130989;27;20471;-88
2022/09/18 08:24:16;;;;;;;0.30;0.30;;;10.30;99.90;;;;;;5113917;28;20466;-76
2022/09/18 08:26:45;;;;;;;0.30;0.30;;;10.30;99.90;;;;;;5115615;28;20479;-88
2022/09/18 08:29:17;;;;;;;1.70;0.50;;;10.30;99.90;;;;;;5134888;28;20438;-88
2022/09/18 08:31:44;;;;;;;0.30;0.20;;;10.30;99.90;;;;;;5133885;28;20438;-76
2022/09/18 08:34:11;;;;;;;0.60;0.40;;;10.30;99.90;;;;;;5134185;28;20997;-88
2022/09/18 08:36:38;;;;;;;0.40;0.40;;;10.40;99.90;;;;;;5133756;28;20801;-82
2022/09/18 08:39:05;;;;;;;0.50;0.47;;;10.40;99.90;;;;;;5133910;28;20446;-82
2022/09/18 08:41:45;;;;;;;0.40;0.40;;;10.50;99.90;;;;;;5127273;28;20463;-82
2022/09/18 08:44:23;;;;;;;0.40;0.30;;;10.50;99.90;;;;;;5113648;28;20469;-82
2022/09/18 08:46:55;;;;;;;0.40;0.40;;;10.50;99.90;;;;;;5122163;28;20434;-82
2022/09/18 08:49:27;;;;;;;0.33;0.33;;;10.50;99.90;;;;;;5126755;28;20431;-87
2022/09/18 08:51:58;;;;;;;0.30;0.30;;;10.50;99.90;;;;;;5114236;28;20822;-80
2022/09/18 08:54:40;;;;;;;0.43;0.40;;;10.60;99.90;;;;;;5113528;28;20463;-77
2022/09/18 08:57:14;;;;;;;0.30;0.30;;;10.60;99.90;;;;;;5113569;28;20444;-77
2022/09/18 08:59:46;;;;;;;1.70;0.40;;;10.70;99.90;;;;;;5113184;28;20924;-77
2022/09/18 09:02:25;;;;;;;0.43;0.40;;;10.70;99.90;;;;;;5113415;28;20474;-77
2022/09/18 09:04:56;;;;;;;0.30;0.30;;;10.70;99.90;;;;;;5113522;28;20431;-77
2022/09/18 09:07:44;;;;;;;0.40;0.40;;;10.70;99.90;;;;;;5113572;28;20427;-81
2022/09/18 09:10:31;;;;;;;0.60;0.40;;;10.80;99.90;;;;;;5110919;28;20947;-76
2022/09/18 09:13:15;;;;;;;0.40;0.40;;;10.80;99.90;;;;;;5113023;28;20834;-77
2022/09/18 09:15:52;;;;;;;0.30;0.30;;;10.90;99.90;;;;;;5113436;28;20431;-77
2022/09/18 09:18:22;;;;;;;0.40;0.30;;;10.90;99.90;;;;;;5113125;28;20432;-80
2022/09/18 09:20:52;;;;;;;0.50;0.40;;;10.90;99.90;;;;;;5113338;28;20459;-77
2022/09/18 09:23:26;;;;;;;0.80;0.40;;;10.90;99.90;;;;;;5113255;28;20467;-77
2022/09/18 09:26:01;;;;;;;0.80;0.30;;;10.90;99.90;;;;;;5113358;28;20434;-77
2022/09/18 09:28:35;;;;;;;0.50;0.50;;;10.90;99.90;;;;;;5112940;28;20475;-77
2022/09/18 09:31:06;;;;;;;0.30;0.30;;;10.90;99.90;;;;;;5113280;28;20430;-77
2022/09/18 09:33:37;;;;;;;0.50;0.30;;;10.90;99.90;;;;;;5112901;28;20994;-77
2022/09/18 09:36:08;;;;;;;0.85;0.40;;;11.00;99.90;;;;;;5116062;28;20434;-77
2022/09/18 09:38:41;;;;;;;0.80;0.50;;;11.20;99.90;;;;;;5116933;28;20197;-77
2022/09/18 09:41:14;;;;;;;0.30;0.30;;;11.40;99.90;;;;;;5116828;28;20466;-77
2022/09/18 09:43:46;;;;;;;0.40;0.30;;;11.60;99.90;;;;;;5116459;28;20459;-77
2022/09/18 09:46:26;;;;;;;0.40;0.30;;;11.70;99.90;;;;;;5116823;28;20431;-77
2022/09/18 09:49:01;;;;;;;0.40;0.40;;;11.80;99.90;;;;;;5116763;28;20541;-77
2022/09/18 09:51:42;;;;;;;0.50;0.50;;;11.90;99.90;;;;;;5116395;28;20965;-77
2022/09/18 09:54:11;;;;;;;0.63;0.40;;;12.00;99.90;;;;;;5116221;28;20822;-77
2022/09/18 09:56:44;;;;;;;0.80;0.80;;;12.10;99.90;;;;;;5116249;28;20209;-77
2022/09/18 09:59:20;;;;;;;0.40;0.40;;;12.20;99.90;;;;;;5116520;28;20438;-77
2022/09/18 10:01:55;;;;;;;0.53;0.37;;;12.20;99.90;;;;;;5116375;28;20470;-76
2022/09/18 10:04:32;;;;;;;0.60;0.50;;;12.20;99.90;;;;;;5116502;28;20519;-77
2022/09/18 10:07:08;;;;;;;0.30;0.20;;;12.20;99.90;;;;;;5116082;28;20419;-76
2022/09/18 10:09:40;;;;;;;0.30;0.30;;;12.30;99.90;;;;;;5116062;28;20924;-77
2022/09/18 10:12:21;;;;;;;0.40;0.30;;;12.40;99.90;;;;;;5116258;28;20430;-77
2022/09/18 10:14:50;;;;;;;0.57;0.40;;;12.50;99.90;;;;;;5116217;28;20522;-77
2022/09/18 10:17:19;;;;;;;0.40;0.40;;;12.60;99.90;;;;;;5116112;28;20439;-77
2022/09/18 10:19:48;;;;;;;0.40;0.40;;;12.80;99.90;;;;;;5116051;28;20454;-77
2022/09/18 10:22:19;;;;;;;0.30;0.30;;;13.00;99.90;;;;;;5115643;28;21020;-77
2022/09/18 10:24:53;;;;;;;0.50;0.40;;;13.00;99.90;;;;;;5115731;28;20428;-77
2022/09/18 10:27:20;;;;;;;0.40;0.40;;;13.00;99.90;;;;;;5115740;28;20474;-77
2022/09/18 10:29:47;;;;;;;0.60;0.30;;;13.00;99.90;;;;;;5115864;28;20439;-77
2022/09/18 10:32:34;;;;;;;0.47;0.40;;;13.10;99.90;;;;;;5115798;28;20447;-77
2022/09/18 10:35:00;;;;;;;0.40;0.40;;;13.20;99.90;;;;;;5115914;28;20431;-77
2022/09/18 10:37:41;;;;;;;0.30;0.30;;;13.40;99.90;;;;;;5115731;28;20447;-78
2022/09/18 10:40:29;;;;;;;0.40;0.30;;;13.60;99.90;;;;;;5115713;28;20789;-78
2022/09/18 10:42:56;;;;;;;0.30;0.30;;;13.60;99.90;;;;;;5115538;28;20528;-77
2022/09/18 10:45:26;;;;;;;0.47;0.47;;;13.50;99.90;;;;;;5115585;28;20443;-78
2022/09/18 10:48:05;;;;;;;0.40;0.37;;;13.50;99.90;;;;;;5115560;28;20495;-77
2022/09/18 10:50:32;;;;;;;0.40;0.40;;;13.50;99.90;;;;;;5115534;28;20434;-78
2022/09/18 10:53:16;;;;;;;0.30;0.30;;;13.40;99.90;;;;;;5115395;28;20459;-77
2022/09/18 10:55:49;;;;;;;0.40;0.40;;;13.30;99.90;;;;;;5115432;28;20427;-78
2022/09/18 10:58:16;;;;;;;0.43;0.33;;;13.20;99.90;;;;;;5115064;28;20902;-78
2022/09/18 11:00:49;;;;;;;0.40;0.30;;;13.20;99.90;;;;;;5115308;28;20440;-78
2022/09/18 11:03:37;;;;;;;0.47;0.30;;;13.40;99.90;;;;;;5114881;28;20463;-78
2022/09/18 11:06:07;;;;;;;0.33;0.30;;;13.70;99.90;;;;;;5115220;28;20520;-78
2022/09/18 11:08:36;;;;;;;0.40;0.30;;;13.90;99.90;;;;;;5115215;28;20434;-78
2022/09/18 11:11:05;;;;;;;0.30;0.30;;;14.20;99.90;;;;;;5115178;28;20602;-78
2022/09/18 11:13:36;;;;;;;0.50;0.40;;;14.30;99.90;;;;;;5114674;28;20460;-78
2022/09/18 11:16:04;;;;;;;0.50;0.47;;;14.40;99.90;;;;;;5115113;28;20427;-78
2022/09/18 11:18:33;;;;;;;0.98;0.43;;;14.30;99.90;;;;;;5114941;28;20451;-78
2022/09/18 11:21:03;;;;;;;0.50;0.50;;;14.30;99.90;;;;;;5114850;28;20236;-75
2022/09/18 11:23:32;;;;;;;0.60;0.40;;;14.20;99.90;;;;;;5114845;28;20470;-75
2022/09/18 11:26:18;;;;;;;0.50;0.50;;;14.20;99.90;;;;;;5114824;28;20447;-75
2022/09/18 11:28:59;;;;;;;0.40;0.37;;;14.10;99.90;;;;;;5114456;28;20526;-75
2022/09/18 11:31:34;;;;;;;0.30;0.30;;;14.20;99.90;;;;;;5114425;28;20793;-75
2022/09/18 11:34:02;;;;;;;0.40;0.40;;;14.20;99.90;;;;;;5114293;28;20945;-75
2022/09/18 11:36:32;;;;;;;0.40;0.30;;;14.10;99.90;;;;;;5114654;28;20204;-75
2022/09/18 11:39:00;;;;;;;0.40;0.30;;;13.90;99.90;;;;;;5114542;28;20789;-75
2022/09/18 11:41:38;;;;;;;0.83;0.30;;;13.80;99.90;;;;;;5114119;28;20997;-75
2022/09/18 11:44:15;;;;;;;0.30;0.30;;;13.70;99.90;;;;;;5114133;28;21000;-75
2022/09/18 11:46:51;;;;;;;0.70;0.37;;;13.70;99.90;;;;;;5114459;28;20186;-75
2022/09/18 11:49:24;;;;;;;0.40;0.30;;;13.60;99.90;;;;;;5114439;28;20427;-75
2022/09/18 11:51:56;;;;;;;0.57;0.30;;;13.50;99.90;;;;;;5114383;28;20428;-75
2022/09/18 11:54:30;;;;;;;0.30;0.30;;;13.50;99.90;;;;;;5114252;28;20467;-75
2022/09/18 11:57:01;;;;;;;0.93;0.40;;;13.40;99.90;;;;;;5114114;28;20439;-75
2022/09/18 11:59:32;;;;;;;0.30;0.30;;;13.50;99.90;;;;;;5114120;28;20423;-75
2022/09/18 12:02:08;;;;;;;0.40;0.30;;;13.60;99.90;;;;;;5114512;28;20471;-75
2022/09/18 12:04:46;;;;;;;3.17;0.50;;;13.70;99.90;;;;;;5114095;28;20474;-75
2022/09/18 12:07:27;;;;;;;0.30;0.30;;;13.70;99.90;;;;;;5114189;28;20571;-75
2022/09/18 12:09:58;;;;;;;0.60;0.37;;;13.80;99.90;;;;;;5113792;28;20439;-75
2022/09/18 12:12:29;;;;;;;0.30;0.30;;;13.70;99.90;;;;;;5114026;28;20427;-75
2022/09/18 12:15:03;;;;;;;0.40;0.30;;;13.70;99.90;;;;;;5114052;28;20833;-75
2022/09/18 12:17:38;;;;;;;0.67;0.67;;;13.70;99.90;;;;;;5113738;28;20427;-75
2022/09/18 12:20:12;;;;;;;1.00;0.30;;;13.50;99.90;;;;;;5113960;28;20430;-75
2022/09/18 12:22:45;;;;;;;0.30;0.30;;;13.40;99.90;;;;;;5113760;28;20487;-75
2022/09/18 12:25:14;;;;;;;0.60;0.37;;;13.40;99.90;;;;;;5113598;28;20886;-75
2022/09/18 12:27:46;;;;;;;0.60;0.30;;;13.40;99.90;;;;;;5113323;28;20483;-75
2022/09/18 12:30:16;;;;;;;0.87;0.50;;;13.50;99.90;;;;;;5113842;28;20434;-75
2022/09/18 12:33:12;;;;;;;0.30;0.30;;;13.60;99.90;;;;;;5113713;28;20459;-74
2022/09/18 12:35:56;;;;;;;0.55;0.30;;;13.70;99.90;;;;;;5113492;28;20461;-74
2022/09/18 12:38:39;;;;;;;0.30;0.30;;;13.80;99.90;;;;;;5113480;28;20915;-75
2022/09/18 12:41:23;;;;;;;1.30;0.30;;;13.80;99.90;;;;;;5113638;28;20412;-74
2022/09/18 12:44:20;;;;;;;0.40;0.30;;;13.80;99.90;;;;;;5113688;28;20304;-75
2022/09/18 12:46:59;;;;;;;0.40;0.40;;;13.80;99.90;;;;;;5113611;28;20538;-74
2022/09/18 12:49:56;;;;;;;0.30;0.20;;;13.90;99.90;;;;;;5113370;28;20431;-75
2022/09/18 12:52:39;;;;;;;0.43;0.43;;;13.90;99.90;;;;;;5113245;28;20536;-75
2022/09/18 12:55:25;;;;;;;0.30;0.20;;;13.90;99.90;;;;;;5113581;28;20431;-75
2022/09/18 12:58:04;;;;;;;0.30;0.30;;;13.80;99.90;;;;;;5113618;28;20842;-75
2022/09/18 13:00:31;;;;;;;0.30;0.30;;;13.90;99.90;;;;;;5113500;28;20189;-75
2022/09/18 13:03:03;;;;;;;0.40;0.30;;;13.90;99.90;;;;;;5113343;28;20513;-75
2022/09/18 13:05:34;;;;;;;0.30;0.30;;;13.90;99.90;;;;;;5113515;28;20431;-74
2022/09/18 13:08:08;;;;;;;0.33;0.30;;;14.00;99.90;;;;;;5113458;28;20431;-74
2022/09/18 13:10:39;;;;;;;0.30;0.30;;;14.00;99.90;;;;;;5115760;28;20434;-75